createdAt,value
2022-10-02T00:00:13.992Z,100.00
2022-10-02T00:02:57.197Z,100.00
2022-10-02T00:05:45.451Z,100.00
2022-10-02T00:08:25.949Z,100.00
2022-10-02T00:11:44.147Z,100.00
2022-10-02T00:14:18.844Z,100.00
2022-10-02T00:16:57.138Z,100.00
2022-10-02T00:19:26.692Z,100.00
2022-10-02T00:22:21.220Z,100.00
2022-10-02T00:25:19.793Z,100.00
2022-10-02T00:28:18.239Z,100.00
2022-10-02T00:31:48.411Z,100.00
2022-10-02T00:34:52.738Z,100.00
2022-10-02T00:37:36.625Z,100.00
2022-10-02T00:40:53.491Z,100.00
2022-10-02T00:43:41.251Z,100.00
2022-10-02T00:47:11.276Z,100.00
2022-10-02T00:50:38.407Z,100.00
2022-10-02T00:53:40.835Z,100.00
2022-10-02T00:56:58.181Z,100.00
2022-10-02T01:00:13.851Z,100.00
2022-10-02T01:03:09.329Z,100.00
2022-10-02T01:05:38.257Z,100.00
2022-10-02T01:08:08.497Z,100.00
2022-10-02T01:10:40.832Z,100.00
2022-10-02T01:13:08.606Z,100.00
2022-10-02T01:15:45.205Z,100.00
2022-10-02T01:18:15.915Z,100.00
2022-10-02T01:20:50.711Z,100.00
2022-10-02T01:24:00.767Z,100.00
2022-10-02T01:26:28.373Z,100.00
2022-10-02T01:28:56.853Z,100.00
2022-10-02T01:31:25.098Z,100.00
2022-10-02T01:33:53.636Z,100.00
2022-10-02T01:36:22.657Z,100.00
2022-10-02T01:38:53.165Z,100.00
2022-10-02T01:41:20.801Z,100.00
2022-10-02T01:43:59.105Z,100.00
2022-10-02T01:46:40.119Z,100.00
2022-10-02T01:49:53.315Z,100.00
2022-10-02T01:52:43.684Z,100.00
2022-10-02T01:56:24.838Z,100.00
2022-10-02T01:59:10.773Z,100.00
2022-10-02T02:02:28.413Z,100.00
2022-10-02T02:05:37.540Z,100.00
2022-10-02T02:08:32.117Z,100.00
2022-10-02T02:11:20.421Z,100.00
2022-10-02T02:14:05.637Z,100.00
2022-10-02T02:16:50.458Z,100.00
2022-10-02T02:19:39.156Z,100.00
2022-10-02T02:22:37.651Z,100.00
2022-10-02T02:25:15.885Z,100.00
2022-10-02T02:27:52.111Z,100.00
2022-10-02T02:30:23.170Z,100.00
2022-10-02T02:33:14.747Z,100.00
2022-10-02T02:35:49.391Z,100.00
2022-10-02T02:38:38.108Z,100.00
2022-10-02T02:41:14.120Z,100.00
2022-10-02T02:44:18.709Z,100.00
2022-10-02T02:47:07.712Z,100.00
2022-10-02T02:50:17.283Z,100.00
2022-10-02T02:53:08.013Z,100.00
2022-10-02T02:55:46.202Z,100.00
2022-10-02T02:58:56.617Z,100.00
2022-10-02T03:01:24.439Z,100.00
2022-10-02T03:03:52.096Z,100.00
2022-10-02T03:06:38.060Z,100.00
2022-10-02T03:09:20.220Z,100.00
2022-10-02T03:12:05.066Z,100.00
2022-10-02T03:14:50.421Z,100.00
2022-10-02T03:17:50.323Z,100.00
2022-10-02T03:20:42.647Z,100.00
2022-10-02T03:23:54.033Z,100.00
2022-10-02T03:26:41.448Z,100.00
2022-10-02T03:29:43.988Z,100.00
2022-10-02T03:32:16.507Z,100.00
2022-10-02T03:34:45.147Z,100.00
2022-10-02T03:37:12.981Z,100.00
2022-10-02T03:39:45.479Z,100.00
2022-10-02T03:42:15.949Z,100.00
2022-10-02T03:44:44.201Z,100.00
2022-10-02T03:47:11.855Z,100.00
2022-10-02T03:49:40.003Z,100.00
2022-10-02T03:52:07.914Z,100.00
2022-10-02T03:54:36.567Z,100.00
2022-10-02T03:57:18.605Z,100.00
2022-10-02T04:00:19.816Z,100.00
2022-10-02T04:03:02.250Z,100.00
2022-10-02T04:05:42.028Z,100.00
2022-10-02T04:08:36.453Z,100.00
2022-10-02T04:11:43.656Z,100.00
2022-10-02T04:15:09.060Z,100.00
2022-10-02T04:18:11.333Z,100.00
2022-10-02T04:21:41.121Z,100.00
2022-10-02T04:24:31.532Z,100.00
2022-10-02T04:27:29.613Z,100.00
2022-10-02T04:30:07.107Z,100.00
2022-10-02T04:32:37.056Z,100.00
2022-10-02T04:35:41.437Z,100.00
2022-10-02T04:38:59.716Z,100.00
2022-10-02T04:41:36.036Z,100.00
2022-10-02T04:44:34.828Z,100.00
2022-10-02T04:47:55.508Z,100.00
2022-10-02T04:50:45.165Z,100.00
2022-10-02T04:53:55.328Z,100.00
2022-10-02T04:56:47.036Z,100.00
2022-10-02T04:59:35.893Z,100.00
2022-10-02T05:02:44.369Z,100.00
2022-10-02T05:05:32.791Z,100.00
2022-10-02T05:08:20.919Z,100.00
2022-10-02T05:11:28.930Z,100.00
2022-10-02T05:14:41.541Z,100.00
2022-10-02T05:18:08.063Z,100.00
2022-10-02T05:21:12.441Z,100.00
2022-10-02T05:24:03.026Z,100.00
2022-10-02T05:26:52.694Z,100.00
2022-10-02T05:29:58.661Z,100.00
2022-10-02T05:33:02.851Z,100.00
2022-10-02T05:35:43.092Z,100.00
2022-10-02T05:38:27.439Z,100.00
2022-10-02T05:41:31.561Z,100.00
2022-10-02T05:44:28.715Z,100.00
2022-10-02T05:47:35.682Z,100.00
2022-10-02T05:50:12.339Z,100.00
2022-10-02T05:53:25.431Z,100.00
2022-10-02T05:56:05.466Z,100.00
2022-10-02T05:58:58.572Z,100.00
2022-10-02T06:01:40.508Z,98.96
2022-10-02T06:04:44.997Z,96.96
2022-10-02T06:07:19.261Z,96.81
2022-10-02T06:09:59.142Z,95.82
2022-10-02T06:13:01.048Z,95.05
2022-10-02T06:15:55.707Z,93.77
2022-10-02T06:18:29.347Z,92.75
2022-10-02T06:21:09.743Z,91.98
2022-10-02T06:23:52.878Z,92.00
2022-10-02T06:26:51.736Z,91.75
2022-10-02T06:29:48.996Z,90.71
2022-10-02T06:32:51.737Z,90.06
2022-10-02T06:35:38.294Z,90.89
2022-10-02T06:38:42.617Z,90.29
2022-10-02T06:41:54.454Z,89.22
2022-10-02T06:45:08.600Z,89.05
2022-10-02T06:48:22.866Z,88.62
2022-10-02T06:51:09.786Z,87.72
2022-10-02T06:53:46.076Z,76.75
2022-10-02T06:57:25.712Z,69.08
2022-10-02T07:00:12.453Z,73.36
2022-10-02T07:03:19.111Z,77.55
2022-10-02T07:06:23.720Z,82.91
2022-10-02T07:09:44.106Z,83.55
2022-10-02T07:12:30.398Z,83.20
2022-10-02T07:15:26.234Z,84.29
2022-10-02T07:18:52.434Z,83.78
2022-10-02T07:21:23.778Z,82.00
2022-10-02T07:24:12.129Z,82.12
2022-10-02T07:26:48.236Z,80.12
2022-10-02T07:29:33.800Z,79.70
2022-10-02T07:32:38.395Z,78.33
2022-10-02T07:35:49.561Z,79.16
2022-10-02T07:39:35.869Z,77.76
2022-10-02T07:42:55.294Z,76.85
2022-10-02T07:45:30.280Z,77.58
2022-10-02T07:48:01.472Z,76.43
2022-10-02T07:50:46.758Z,76.48
2022-10-02T07:53:41.119Z,75.87
2022-10-02T07:56:20.139Z,76.97
2022-10-02T07:59:00.207Z,75.24
2022-10-02T08:01:36.603Z,75.14
2022-10-02T08:04:18.979Z,75.58
2022-10-02T08:06:59.816Z,76.44
2022-10-02T08:09:52.066Z,75.30
2022-10-02T08:12:52.790Z,74.07
2022-10-02T08:15:23.531Z,74.46
2022-10-02T08:18:22.812Z,73.67
2022-10-02T08:20:53.553Z,75.17
2022-10-02T08:23:28.193Z,72.59
2022-10-02T08:26:35.787Z,73.03
2022-10-02T08:29:46.760Z,73.28
2022-10-02T08:32:15.749Z,71.67
2022-10-02T08:34:44.298Z,71.38
2022-10-02T08:38:01.628Z,71.66
2022-10-02T08:41:37.399Z,72.71
2022-10-02T08:44:36.126Z,70.93
2022-10-02T08:47:28.945Z,71.11
2022-10-02T08:51:30.321Z,70.35
2022-10-02T08:55:00.154Z,70.41
2022-10-02T08:58:03.616Z,68.98
2022-10-02T09:00:44.728Z,69.93
2022-10-02T09:04:09.290Z,68.79
2022-10-02T09:07:24.829Z,68.94
2022-10-02T09:10:30.716Z,69.32
2022-10-02T09:13:47.104Z,69.34
2022-10-02T09:17:14.613Z,68.90
2022-10-02T09:20:05.471Z,67.99
2022-10-02T09:23:13.830Z,69.52
2022-10-02T09:26:32.143Z,67.05
2022-10-02T09:29:56.287Z,68.84
2022-10-02T09:32:45.340Z,68.81
2022-10-02T09:36:24.950Z,68.68
2022-10-02T09:39:47.570Z,69.27
2022-10-02T09:43:24.234Z,66.35
2022-10-02T09:46:26.969Z,66.46
2022-10-02T09:49:42.618Z,66.36
2022-10-02T09:52:42.771Z,65.89
2022-10-02T09:56:32.319Z,65.76
2022-10-02T09:59:46.395Z,64.27
2022-10-02T10:02:48.296Z,65.02
2022-10-02T10:05:48.221Z,65.11
2022-10-02T10:09:01.503Z,65.04
2022-10-02T10:12:00.139Z,66.51
2022-10-02T10:14:52.028Z,66.29
2022-10-02T10:18:20.156Z,65.33
2022-10-02T10:21:30.733Z,65.63
2022-10-02T10:24:34.253Z,65.52
2022-10-02T10:28:06.004Z,66.30
2022-10-02T10:31:02.270Z,64.19
2022-10-02T10:34:37.981Z,63.73
2022-10-02T10:37:56.752Z,64.10
2022-10-02T10:41:01.396Z,63.84
2022-10-02T10:44:04.840Z,63.09
2022-10-02T10:47:20.254Z,62.89
2022-10-02T10:50:35.906Z,62.15
2022-10-02T10:54:02.152Z,64.13
2022-10-02T10:56:49.370Z,63.24
2022-10-02T11:00:16.331Z,62.94
2022-10-02T11:03:49.578Z,64.06
2022-10-02T11:07:08.111Z,65.21
2022-10-02T11:10:31.389Z,64.04
2022-10-02T11:13:42.747Z,63.55
2022-10-02T11:16:54.436Z,64.56
2022-10-02T11:20:18.318Z,64.55
2022-10-02T11:23:39.946Z,63.61
2022-10-02T11:26:43.907Z,62.60
2022-10-02T11:29:31.117Z,63.50
2022-10-02T11:32:45.053Z,64.10
2022-10-02T11:35:37.631Z,62.81
2022-10-02T11:38:38.856Z,62.40
2022-10-02T11:41:43.884Z,61.65
2022-10-02T11:44:24.850Z,63.08
2022-10-02T11:47:29.975Z,62.25
2022-10-02T11:50:45.969Z,63.24
2022-10-02T11:53:26.274Z,62.60
2022-10-02T11:56:14.429Z,63.20
2022-10-02T12:00:05.573Z,63.05
2022-10-02T12:03:03.540Z,63.45
2022-10-02T12:06:04.606Z,63.47
2022-10-02T12:08:53.923Z,59.82
2022-10-02T12:12:08.450Z,60.58
2022-10-02T12:15:16.821Z,60.06
2022-10-02T12:18:22.015Z,60.13
2022-10-02T12:21:48.454Z,60.39
2022-10-02T12:24:41.251Z,61.04
2022-10-02T12:27:36.963Z,59.73
2022-10-02T12:30:36.385Z,61.13
2022-10-02T12:33:51.817Z,60.59
2022-10-02T12:36:56.718Z,59.94
2022-10-02T12:39:57.473Z,59.80
2022-10-02T12:43:10.524Z,59.46
2022-10-02T12:46:13.711Z,57.70
2022-10-02T12:49:28.573Z,59.36
2022-10-02T12:52:50.884Z,58.99
2022-10-02T12:56:08.311Z,59.30
2022-10-02T12:59:22.226Z,59.63
2022-10-02T13:02:56.266Z,58.93
2022-10-02T13:06:33.967Z,60.78
2022-10-02T13:09:29.981Z,59.10
2022-10-02T13:12:20.236Z,59.67
2022-10-02T13:15:06.527Z,60.40
2022-10-02T13:18:04.038Z,62.26
2022-10-02T13:20:56.482Z,60.38
2022-10-02T13:23:32.176Z,60.33
2022-10-02T13:26:41.326Z,61.41
2022-10-02T13:29:53.236Z,61.99
2022-10-02T13:32:52.582Z,62.88
2022-10-02T13:36:07.068Z,62.72
2022-10-02T13:39:21.668Z,63.74
2022-10-02T13:42:14.892Z,63.36
2022-10-02T13:45:33.531Z,64.55
2022-10-02T13:48:55.168Z,64.10
2022-10-02T13:52:08.113Z,64.58
2022-10-02T13:55:29.211Z,66.54
2022-10-02T13:58:30.185Z,67.02
2022-10-02T14:01:57.681Z,68.75
2022-10-02T14:04:47.538Z,69.78
2022-10-02T14:07:46.864Z,70.77
2022-10-02T14:10:47.482Z,71.25
2022-10-02T14:14:07.350Z,72.02
2022-10-02T14:16:56.457Z,73.03
2022-10-02T14:19:52.862Z,73.07
2022-10-02T14:22:52.032Z,73.15
2022-10-02T14:25:50.752Z,73.51
2022-10-02T14:29:09.622Z,74.38
2022-10-02T14:32:33.574Z,74.59
2022-10-02T14:35:43.600Z,76.52
2022-10-02T14:38:25.831Z,77.37
2022-10-02T14:40:58.329Z,77.91
2022-10-02T14:43:55.233Z,79.23
2022-10-02T14:46:53.000Z,78.63
2022-10-02T14:50:03.900Z,79.28
2022-10-02T14:52:46.323Z,80.92
2022-10-02T14:55:49.510Z,80.54
2022-10-02T14:59:12.303Z,80.30
2022-10-02T15:02:09.072Z,80.90
2022-10-02T15:05:47.576Z,81.54
2022-10-02T15:08:49.118Z,81.30
2022-10-02T15:11:36.146Z,81.89
2022-10-02T15:14:51.638Z,82.42
2022-10-02T15:18:05.878Z,82.21
2022-10-02T15:20:59.636Z,82.89
2022-10-02T15:23:44.759Z,82.57
2022-10-02T15:26:53.420Z,82.66
2022-10-02T15:30:04.851Z,82.39
2022-10-02T15:33:00.005Z,83.57
2022-10-02T15:36:07.476Z,84.28
2022-10-02T15:39:19.816Z,84.99
2022-10-02T15:42:11.268Z,85.92
2022-10-02T15:45:17.404Z,85.69
2022-10-02T15:48:44.127Z,85.14
2022-10-02T15:51:53.812Z,84.56
2022-10-02T15:55:38.995Z,84.90
2022-10-02T15:58:50.428Z,85.52
2022-10-02T16:02:31.194Z,85.42
2022-10-02T16:05:58.468Z,85.12
2022-10-02T16:08:43.570Z,85.42
2022-10-02T16:11:26.636Z,85.78
2022-10-02T16:14:08.809Z,85.90
2022-10-02T16:17:07.307Z,86.37
2022-10-02T16:20:10.109Z,87.29
2022-10-02T16:23:04.022Z,87.32
2022-10-02T16:25:54.379Z,87.82
2022-10-02T16:28:51.954Z,87.82
2022-10-02T16:32:02.481Z,87.65
2022-10-02T16:35:22.471Z,87.37
2022-10-02T16:38:06.526Z,87.39
2022-10-02T16:41:12.850Z,88.21
2022-10-02T16:44:55.695Z,87.79
2022-10-02T16:48:29.518Z,87.98
2022-10-02T16:51:25.906Z,87.84
2022-10-02T16:54:40.530Z,87.64
2022-10-02T16:57:40.274Z,88.36
2022-10-02T17:00:26.636Z,88.64
2022-10-02T17:03:37.074Z,89.12
2022-10-02T17:06:28.396Z,89.51
2022-10-02T17:09:25.179Z,89.46
2022-10-02T17:12:58.083Z,90.01
2022-10-02T17:15:52.666Z,89.89
2022-10-02T17:18:58.007Z,90.33
2022-10-02T17:21:48.322Z,90.33
2022-10-02T17:24:55.601Z,90.35
2022-10-02T17:28:12.213Z,91.47
2022-10-02T17:31:15.521Z,91.04
2022-10-02T17:34:27.637Z,91.62
2022-10-02T17:37:41.562Z,91.65
2022-10-02T17:40:28.563Z,92.20
2022-10-02T17:43:37.328Z,91.88
2022-10-02T17:46:38.307Z,92.05
2022-10-02T17:49:47.536Z,92.52
2022-10-02T17:53:08.329Z,92.72
2022-10-02T17:56:22.567Z,92.36
2022-10-02T17:59:36.813Z,92.10
2022-10-02T18:03:01.174Z,92.25
2022-10-02T18:06:30.905Z,92.37
2022-10-02T18:09:33.559Z,93.34
2022-10-02T18:12:41.722Z,93.13
2022-10-02T18:16:08.801Z,92.96
2022-10-02T18:19:04.590Z,94.34
2022-10-02T18:21:57.026Z,94.80
2022-10-02T18:25:00.169Z,94.73
2022-10-02T18:27:56.094Z,94.55
2022-10-02T18:30:43.701Z,94.44
2022-10-02T18:33:26.354Z,93.98
2022-10-02T18:36:32.870Z,95.02
2022-10-02T18:39:20.071Z,94.51
2022-10-02T18:41:57.120Z,94.80
2022-10-02T18:45:12.984Z,94.68
2022-10-02T18:48:45.168Z,95.10
2022-10-02T18:51:40.693Z,95.10
2022-10-02T18:55:17.636Z,95.44
2022-10-02T18:58:32.041Z,95.41
2022-10-02T19:01:35.352Z,95.77
2022-10-02T19:04:19.655Z,95.62
2022-10-02T19:07:20.590Z,95.70
2022-10-02T19:10:12.225Z,95.14
2022-10-02T19:12:44.682Z,94.88
2022-10-02T19:15:33.652Z,94.91
2022-10-02T19:18:06.718Z,94.98
2022-10-02T19:21:08.485Z,94.70
2022-10-02T19:24:14.385Z,95.17
2022-10-02T19:26:50.943Z,94.79
2022-10-02T19:29:45.481Z,95.21
2022-10-02T19:32:43.300Z,95.00
2022-10-02T19:35:33.695Z,94.81
2022-10-02T19:38:34.064Z,96.79
2022-10-02T19:41:13.560Z,95.73
2022-10-02T19:44:07.210Z,95.35
2022-10-02T19:46:44.452Z,96.66
2022-10-02T19:49:52.781Z,95.55
2022-10-02T19:53:06.949Z,95.18
2022-10-02T19:55:42.242Z,95.10
2022-10-02T19:58:21.687Z,94.67
2022-10-02T20:00:54.302Z,95.41
2022-10-02T20:03:25.242Z,95.02
2022-10-02T20:06:06.531Z,94.25
2022-10-02T20:08:46.230Z,93.33
2022-10-02T20:11:40.266Z,93.59
2022-10-02T20:14:44.029Z,93.32
2022-10-02T20:17:17.805Z,93.05
2022-10-02T20:20:07.753Z,92.79
2022-10-02T20:22:49.627Z,93.22
2022-10-02T20:25:31.711Z,93.50
2022-10-02T20:28:22.882Z,93.32
2022-10-02T20:31:04.630Z,93.50
2022-10-02T20:33:42.531Z,93.34
2022-10-02T20:36:19.623Z,93.45
2022-10-02T20:39:07.099Z,93.27
2022-10-02T20:42:10.075Z,93.75
2022-10-02T20:44:39.178Z,93.93
2022-10-02T20:47:56.257Z,93.97
2022-10-02T20:50:49.577Z,93.92
2022-10-02T20:54:00.074Z,93.99
2022-10-02T20:56:42.554Z,94.01
2022-10-02T20:59:59.146Z,94.64
2022-10-02T21:02:59.771Z,95.30
2022-10-02T21:06:17.200Z,95.23
2022-10-02T21:10:01.269Z,95.33
2022-10-02T21:13:19.303Z,94.98
2022-10-02T21:16:10.959Z,94.67
2022-10-02T21:19:23.628Z,94.86
2022-10-02T21:22:24.707Z,94.79
2022-10-02T21:25:50.199Z,95.16
2022-10-02T21:29:15.585Z,95.10
2022-10-02T21:32:10.369Z,95.36
2022-10-02T21:35:32.343Z,95.33
2022-10-02T21:38:36.808Z,94.96
2022-10-02T21:41:48.551Z,95.02
2022-10-02T21:45:16.190Z,95.66
2022-10-02T21:48:45.057Z,95.78
2022-10-02T21:51:40.647Z,96.38
2022-10-02T21:54:52.964Z,95.73
2022-10-02T21:58:05.552Z,96.93
2022-10-02T22:00:58.614Z,97.08
2022-10-02T22:04:08.228Z,96.69
2022-10-02T22:07:13.280Z,96.28
2022-10-02T22:10:05.402Z,96.45
2022-10-02T22:13:23.377Z,96.49
2022-10-02T22:16:28.867Z,96.94
2022-10-02T22:19:43.581Z,97.40
2022-10-02T22:22:38.309Z,97.20
2022-10-02T22:25:43.403Z,97.39
2022-10-02T22:28:36.588Z,97.94
2022-10-02T22:31:35.298Z,98.19
2022-10-02T22:34:41.883Z,98.62
2022-10-02T22:38:26.222Z,99.17
2022-10-02T22:41:21.107Z,99.09
2022-10-02T22:44:16.628Z,99.01
2022-10-02T22:47:32.554Z,99.16
2022-10-02T22:50:19.784Z,98.62
2022-10-02T22:53:18.101Z,98.91
2022-10-02T22:55:55.854Z,99.01
2022-10-02T22:58:48.460Z,98.67
2022-10-02T23:01:37.936Z,98.30
2022-10-02T23:04:47.682Z,98.24
2022-10-02T23:07:34.822Z,98.00
2022-10-02T23:10:21.681Z,98.27
2022-10-02T23:13:22.243Z,99.12
2022-10-02T23:15:54.235Z,98.82
2022-10-02T23:18:34.720Z,98.79
2022-10-02T23:21:45.681Z,98.84
2022-10-02T23:24:31.265Z,98.88
2022-10-02T23:27:21.370Z,98.67
2022-10-02T23:29:58.059Z,98.73
2022-10-02T23:32:37.320Z,98.44
2022-10-02T23:35:14.907Z,98.01
2022-10-02T23:37:54.523Z,98.20
2022-10-02T23:41:39.566Z,98.19
2022-10-02T23:44:19.724Z,97.98
2022-10-02T23:47:34.875Z,98.47
2022-10-02T23:50:30.832Z,98.34
2022-10-02T23:53:49.024Z,98.03
2022-10-02T23:56:47.380Z,97.60
2022-10-02T23:59:51.943Z,96.87
